sensor_id;sensor_type;location;lat;lon;timestamp;P1;durP1;ratioP1;P2;durP2;ratioP2
25155;SDS011;21913;52.456;13.634;2023-03-14T00:04:48;1.75;;;1.00;;
25155;SDS011;21913;52.456;13.634;2023-03-14T00:09:50;1.98;;;1.00;;
25155;SDS011;21913;52.456;13.634;2023-03-14T00:14:52;1.95;;;1.00;;
25155;SDS011;21913;52.456;13.634;2023-03-14T00:19:53;3.20;;;0.80;;
25155;SDS011;21913;52.456;13.634;2023-03-14T00:24:55;2.58;;;0.85;;
25155;SDS011;21913;52.456;13.634;2023-03-14T00:29:56;1.90;;;1.00;;
25155;SDS011;21913;52.456;13.634;2023-03-14T00:34:58;2.08;;;0.90;;
25155;SDS011;21913;52.456;13.634;2023-03-14T00:40:00;1.67;;;0.80;;
25155;SDS011;21913;52.456;13.634;2023-03-14T00:45:02;1.77;;;0.98;;
25155;SDS011;21913;52.456;13.634;2023-03-14T00:50:04;2.33;;;1.02;;
25155;SDS011;21913;52.456;13.634;2023-03-14T00:55:06;1.70;;;1.08;;
25155;SDS011;21913;52.456;13.634;2023-03-14T01:00:08;2.13;;;1.00;;
25155;SDS011;21913;52.456;13.634;2023-03-14T01:05:10;1.92;;;1.00;;
25155;SDS011;21913;52.456;13.634;2023-03-14T01:10:12;2.72;;;0.93;;
25155;SDS011;21913;52.456;13.634;2023-03-14T01:15:14;1.50;;;0.80;;
25155;SDS011;21913;52.456;13.634;2023-03-14T01:20:15;1.42;;;0.75;;
25155;SDS011;21913;52.456;13.634;2023-03-14T01:25:18;1.90;;;1.00;;
25155;SDS011;21913;52.456;13.634;2023-03-14T01:30:19;2.63;;;0.90;;
25155;SDS011;21913;52.456;13.634;2023-03-14T01:35:21;2.13;;;0.90;;
25155;SDS011;21913;52.456;13.634;2023-03-14T01:40:23;2.35;;;1.02;;
25155;SDS011;21913;52.456;13.634;2023-03-14T01:51:04;1.48;;;0.90;;
25155;SDS011;21913;52.456;13.634;2023-03-14T01:56:10;2.25;;;1.00;;
25155;SDS011;21913;52.456;13.634;2023-03-14T02:01:15;1.65;;;0.90;;
25155;SDS011;21913;52.456;13.634;2023-03-14T02:06:21;1.92;;;0.90;;
25155;SDS011;21913;52.456;13.634;2023-03-14T02:11:28;2.00;;;1.10;;
25155;SDS011;21913;52.456;13.634;2023-03-14T02:16:38;2.65;;;0.80;;
25155;SDS011;21913;52.456;13.634;2023-03-14T02:27:18;2.50;;;1.08;;
25155;SDS011;21913;52.456;13.634;2023-03-14T02:32:22;2.28;;;0.98;;
25155;SDS011;21913;52.456;13.634;2023-03-14T02:43:13;1.65;;;0.80;;
25155;SDS011;21913;52.456;13.634;2023-03-14T02:48:21;2.97;;;0.93;;
25155;SDS011;21913;52.456;13.634;2023-03-14T02:53:30;1.60;;;1.00;;
25155;SDS011;21913;52.456;13.634;2023-03-14T02:58:38;3.88;;;0.90;;
25155;SDS011;21913;52.456;13.634;2023-03-14T03:04:00;1.67;;;0.88;;
25155;SDS011;21913;52.456;13.634;2023-03-14T03:09:02;1.42;;;0.75;;
25155;SDS011;21913;52.456;13.634;2023-03-14T03:14:04;1.95;;;0.90;;
25155;SDS011;21913;52.456;13.634;2023-03-14T03:19:05;3.25;;;0.90;;
25155;SDS011;21913;52.456;13.634;2023-03-14T03:24:07;2.53;;;0.80;;
25155;SDS011;21913;52.456;13.634;2023-03-14T03:29:08;1.48;;;0.90;;
25155;SDS011;21913;52.456;13.634;2023-03-14T03:34:10;2.67;;;0.80;;
25155;SDS011;21913;52.456;13.634;2023-03-14T03:39:12;1.15;;;0.77;;
25155;SDS011;21913;52.456;13.634;2023-03-14T03:44:13;1.40;;;0.80;;
25155;SDS011;21913;52.456;13.634;2023-03-14T03:49:15;1.80;;;0.80;;
25155;SDS011;21913;52.456;13.634;2023-03-14T03:54:16;1.20;;;0.70;;
25155;SDS011;21913;52.456;13.634;2023-03-14T03:59:18;1.48;;;0.70;;
25155;SDS011;21913;52.456;13.634;2023-03-14T04:04:20;1.60;;;0.80;;
25155;SDS011;21913;52.456;13.634;2023-03-14T04:09:21;1.17;;;0.63;;
25155;SDS011;21913;52.456;13.634;2023-03-14T04:14:40;1.83;;;0.80;;
25155;SDS011;21913;52.456;13.634;2023-03-14T04:19:47;1.70;;;0.70;;
25155;SDS011;21913;52.456;13.634;2023-03-14T04:24:49;1.55;;;0.82;;
25155;SDS011;21913;52.456;13.634;2023-03-14T04:29:52;1.65;;;0.90;;
25155;SDS011;21913;52.456;13.634;2023-03-14T04:35:06;1.13;;;0.57;;
25155;SDS011;21913;52.456;13.634;2023-03-14T04:40:08;1.50;;;0.80;;
25155;SDS011;21913;52.456;13.634;2023-03-14T04:45:11;1.25;;;0.63;;
25155;SDS011;21913;52.456;13.634;2023-03-14T04:50:15;1.33;;;0.80;;
25155;SDS011;21913;52.456;13.634;2023-03-14T04:55:16;2.35;;;0.75;;
25155;SDS011;21913;52.456;13.634;2023-03-14T05:00:18;1.50;;;0.77;;
25155;SDS011;21913;52.456;13.634;2023-03-14T05:05:31;1.65;;;0.88;;
25155;SDS011;21913;52.456;13.634;2023-03-14T05:10:42;1.60;;;0.80;;
25155;SDS011;21913;52.456;13.634;2023-03-14T05:16:07;1.45;;;0.70;;
25155;SDS011;21913;52.456;13.634;2023-03-14T05:21:24;1.40;;;0.80;;
25155;SDS011;21913;52.456;13.634;2023-03-14T05:26:43;1.75;;;0.68;;
25155;SDS011;21913;52.456;13.634;2023-03-14T05:31:54;1.35;;;0.80;;
25155;SDS011;21913;52.456;13.634;2023-03-14T05:37:34;1.30;;;0.68;;
25155;SDS011;21913;52.456;13.634;2023-03-14T05:42:56;1.33;;;0.75;;
25155;SDS011;21913;52.456;13.634;2023-03-14T05:48:17;1.65;;;0.80;;
25155;SDS011;21913;52.456;13.634;2023-03-14T05:53:38;1.00;;;0.63;;
25155;SDS011;21913;52.456;13.634;2023-03-14T05:58:48;1.55;;;0.60;;
25155;SDS011;21913;52.456;13.634;2023-03-14T06:04:16;1.50;;;0.80;;
25155;SDS011;21913;52.456;13.634;2023-03-14T06:09:23;0.90;;;0.70;;
25155;SDS011;21913;52.456;13.634;2023-03-14T06:14:27;1.27;;;0.63;;
25155;SDS011;21913;52.456;13.634;2023-03-14T06:19:28;1.50;;;0.65;;
25155;SDS011;21913;52.456;13.634;2023-03-14T06:24:30;1.48;;;0.70;;
25155;SDS011;21913;52.456;13.634;2023-03-14T06:29:33;1.52;;;0.60;;
25155;SDS011;21913;52.456;13.634;2023-03-14T06:34:36;1.10;;;0.50;;
25155;SDS011;21913;52.456;13.634;2023-03-14T06:39:38;1.17;;;0.63;;
25155;SDS011;21913;52.456;13.634;2023-03-14T06:44:46;1.65;;;0.60;;
25155;SDS011;21913;52.456;13.634;2023-03-14T06:49:48;1.08;;;0.50;;
25155;SDS011;21913;52.456;13.634;2023-03-14T06:54:52;1.63;;;0.50;;
25155;SDS011;21913;52.456;13.634;2023-03-14T06:59:56;1.00;;;0.60;;
25155;SDS011;21913;52.456;13.634;2023-03-14T07:04:58;0.95;;;0.50;;
25155;SDS011;21913;52.456;13.634;2023-03-14T07:10:00;1.42;;;0.60;;
25155;SDS011;21913;52.456;13.634;2023-03-14T07:15:02;1.60;;;0.68;;
25155;SDS011;21913;52.456;13.634;2023-03-14T07:25:25;0.90;;;0.50;;
25155;SDS011;21913;52.456;13.634;2023-03-14T07:30:28;1.30;;;0.60;;
25155;SDS011;21913;52.456;13.634;2023-03-14T07:35:31;1.20;;;0.70;;
25155;SDS011;21913;52.456;13.634;2023-03-14T07:40:35;0.73;;;0.50;;
25155;SDS011;21913;52.456;13.634;2023-03-14T07:45:39;1.15;;;0.65;;
25155;SDS011;21913;52.456;13.634;2023-03-14T07:50:43;1.00;;;0.55;;
25155;SDS011;21913;52.456;13.634;2023-03-14T07:55:45;0.82;;;0.50;;
25155;SDS011;21913;52.456;13.634;2023-03-14T08:00:46;0.93;;;0.40;;
25155;SDS011;21913;52.456;13.634;2023-03-14T08:05:48;1.65;;;0.60;;
25155;SDS011;21913;52.456;13.634;2023-03-14T08:10:51;1.83;;;0.70;;
25155;SDS011;21913;52.456;13.634;2023-03-14T08:15:53;1.48;;;0.65;;
25155;SDS011;21913;52.456;13.634;2023-03-14T08:20:54;0.70;;;0.57;;
25155;SDS011;21913;52.456;13.634;2023-03-14T08:25:56;0.75;;;0.55;;
25155;SDS011;21913;52.456;13.634;2023-03-14T08:30:57;1.58;;;0.52;;
25155;SDS011;21913;52.456;13.634;2023-03-14T08:36:00;1.27;;;0.45;;
25155;SDS011;21913;52.456;13.634;2023-03-14T08:41:02;0.95;;;0.50;;
25155;SDS011;21913;52.456;13.634;2023-03-14T08:46:03;2.20;;;0.60;;
25155;SDS011;21913;52.456;13.634;2023-03-14T08:51:07;0.75;;;0.35;;
25155;SDS011;21913;52.456;13.634;2023-03-14T08:56:10;2.13;;;0.57;;
25155;SDS011;21913;52.456;13.634;2023-03-14T09:01:12;1.10;;;0.50;;
25155;SDS011;21913;52.456;13.634;2023-03-14T09:06:13;0.85;;;0.40;;
25155;SDS011;21913;52.456;13.634;2023-03-14T09:11:15;1.05;;;0.50;;
25155;SDS011;21913;52.456;13.634;2023-03-14T09:16:16;0.80;;;0.50;;
25155;SDS011;21913;52.456;13.634;2023-03-14T09:21:18;0.98;;;0.47;;
25155;SDS011;21913;52.456;13.634;2023-03-14T09:26:19;2.17;;;0.50;;
25155;SDS011;21913;52.456;13.634;2023-03-14T09:31:21;0.28;;;0.28;;
25155;SDS011;21913;52.456;13.634;2023-03-14T09:36:22;2.08;;;0.50;;
25155;SDS011;21913;52.456;13.634;2023-03-14T09:41:27;1.30;;;0.57;;
25155;SDS011;21913;52.456;13.634;2023-03-14T09:46:35;0.90;;;0.40;;
25155;SDS011;21913;52.456;13.634;2023-03-14T09:51:39;0.75;;;0.50;;
25155;SDS011;21913;52.456;13.634;2023-03-14T09:56:41;0.88;;;0.40;;
25155;SDS011;21913;52.456;13.634;2023-03-14T10:01:43;0.65;;;0.28;;
25155;SDS011;21913;52.456;13.634;2023-03-14T10:06:44;1.00;;;0.50;;
25155;SDS011;21913;52.456;13.634;2023-03-14T10:11:46;2.17;;;0.50;;
25155;SDS011;21913;52.456;13.634;2023-03-14T10:16:47;0.75;;;0.40;;
25155;SDS011;21913;52.456;13.634;2023-03-14T10:21:52;0.82;;;0.40;;
25155;SDS011;21913;52.456;13.634;2023-03-14T10:26:57;0.93;;;0.50;;
25155;SDS011;21913;52.456;13.634;2023-03-14T10:32:05;1.02;;;0.40;;
25155;SDS011;21913;52.456;13.634;2023-03-14T10:37:16;1.20;;;0.40;;
25155;SDS011;21913;52.456;13.634;2023-03-14T10:42:26;1.08;;;0.50;;
25155;SDS011;21913;52.456;13.634;2023-03-14T10:47:28;1.40;;;0.50;;
25155;SDS011;21913;52.456;13.634;2023-03-14T10:52:30;1.63;;;0.60;;
25155;SDS011;21913;52.456;13.634;2023-03-14T10:57:46;0.85;;;0.50;;
25155;SDS011;21913;52.456;13.634;2023-03-14T11:19:16;0.82;;;0.50;;
25155;SDS011;21913;52.456;13.634;2023-03-14T11:29:54;0.80;;;0.40;;
25155;SDS011;21913;52.456;13.634;2023-03-14T11:35:03;0.80;;;0.30;;
25155;SDS011;21913;52.456;13.634;2023-03-14T11:40:27;0.90;;;0.32;;
25155;SDS011;21913;52.456;13.634;2023-03-14T11:45:30;0.90;;;0.30;;
25155;SDS011;21913;52.456;13.634;2023-03-14T11:50:36;0.80;;;0.30;;
25155;SDS011;21913;52.456;13.634;2023-03-14T11:55:40;1.65;;;0.50;;
25155;SDS011;21913;52.456;13.634;2023-03-14T12:00:44;1.80;;;0.47;;
25155;SDS011;21913;52.456;13.634;2023-03-14T12:16:45;1.48;;;0.60;;
25155;SDS011;21913;52.456;13.634;2023-03-14T12:21:53;0.90;;;0.50;;
25155;SDS011;21913;52.456;13.634;2023-03-14T12:27:02;0.93;;;0.40;;
25155;SDS011;21913;52.456;13.634;2023-03-14T12:32:06;1.88;;;0.60;;
25155;SDS011;21913;52.456;13.634;2023-03-14T12:37:14;1.60;;;0.40;;
25155;SDS011;21913;52.456;13.634;2023-03-14T12:47:49;1.10;;;0.50;;
25155;SDS011;21913;52.456;13.634;2023-03-14T12:58:21;1.02;;;0.50;;
25155;SDS011;21913;52.456;13.634;2023-03-14T13:08:51;1.70;;;0.30;;
25155;SDS011;21913;52.456;13.634;2023-03-14T13:13:56;1.20;;;0.40;;
25155;SDS011;21913;52.456;13.634;2023-03-14T13:19:00;1.42;;;0.30;;
25155;SDS011;21913;52.456;13.634;2023-03-14T13:24:06;2.15;;;0.50;;
25155;SDS011;21913;52.456;13.634;2023-03-14T13:29:29;1.35;;;0.57;;
25155;SDS011;21913;52.456;13.634;2023-03-14T13:34:33;1.67;;;0.60;;
25155;SDS011;21913;52.456;13.634;2023-03-14T13:39:37;6.85;;;1.38;;
25155;SDS011;21913;52.456;13.634;2023-03-14T13:44:40;8.40;;;1.65;;
25155;SDS011;21913;52.456;13.634;2023-03-14T13:49:42;9.35;;;2.00;;
25155;SDS011;21913;52.456;13.634;2023-03-14T13:54:45;11.07;;;2.00;;
25155;SDS011;21913;52.456;13.634;2023-03-14T13:59:59;12.38;;;2.30;;
25155;SDS011;21913;52.456;13.634;2023-03-14T14:05:05;8.48;;;1.83;;
25155;SDS011;21913;52.456;13.634;2023-03-14T14:10:08;10.05;;;2.20;;
25155;SDS011;21913;52.456;13.634;2023-03-14T14:15:20;10.73;;;2.22;;
25155;SDS011;21913;52.456;13.634;2023-03-14T14:25:28;10.20;;;2.25;;
25155;SDS011;21913;52.456;13.634;2023-03-14T14:30:31;8.40;;;2.40;;
25155;SDS011;21913;52.456;13.634;2023-03-14T14:35:34;12.80;;;2.47;;
25155;SDS011;21913;52.456;13.634;2023-03-14T14:40:40;13.68;;;2.20;;
25155;SDS011;21913;52.456;13.634;2023-03-14T14:45:46;7.88;;;2.00;;
25155;SDS011;21913;52.456;13.634;2023-03-14T14:50:59;10.18;;;2.00;;
25155;SDS011;21913;52.456;13.634;2023-03-14T14:56:25;6.40;;;1.88;;
25155;SDS011;21913;52.456;13.634;2023-03-14T15:01:32;8.93;;;1.88;;
25155;SDS011;21913;52.456;13.634;2023-03-14T15:06:35;6.75;;;2.03;;
25155;SDS011;21913;52.456;13.634;2023-03-14T15:11:36;9.35;;;2.10;;
25155;SDS011;21913;52.456;13.634;2023-03-14T15:16:39;13.57;;;2.40;;
25155;SDS011;21913;52.456;13.634;2023-03-14T15:21:41;6.55;;;1.90;;
25155;SDS011;21913;52.456;13.634;2023-03-14T15:26:42;10.00;;;2.03;;
25155;SDS011;21913;52.456;13.634;2023-03-14T15:31:44;8.00;;;1.73;;
25155;SDS011;21913;52.456;13.634;2023-03-14T15:36:45;6.85;;;2.00;;
25155;SDS011;21913;52.456;13.634;2023-03-14T15:41:47;8.18;;;1.65;;
25155;SDS011;21913;52.456;13.634;2023-03-14T15:46:48;8.85;;;2.20;;
25155;SDS011;21913;52.456;13.634;2023-03-14T15:51:50;8.00;;;1.95;;
25155;SDS011;21913;52.456;13.634;2023-03-14T15:56:51;6.50;;;1.80;;
25155;SDS011;21913;52.456;13.634;2023-03-14T16:01:53;6.47;;;1.88;;
25155;SDS011;21913;52.456;13.634;2023-03-14T16:06:54;6.70;;;1.67;;
25155;SDS011;21913;52.456;13.634;2023-03-14T16:11:56;11.05;;;2.10;;
25155;SDS011;21913;52.456;13.634;2023-03-14T16:16:57;5.97;;;1.55;;
25155;SDS011;21913;52.456;13.634;2023-03-14T16:21:59;7.57;;;1.70;;
25155;SDS011;21913;52.456;13.634;2023-03-14T16:27:00;8.15;;;1.80;;
25155;SDS011;21913;52.456;13.634;2023-03-14T16:32:02;6.10;;;1.58;;
25155;SDS011;21913;52.456;13.634;2023-03-14T16:37:04;4.95;;;1.40;;
25155;SDS011;21913;52.456;13.634;2023-03-14T16:42:06;7.22;;;1.60;;
25155;SDS011;21913;52.456;13.634;2023-03-14T16:47:07;6.85;;;1.90;;
25155;SDS011;21913;52.456;13.634;2023-03-14T16:52:11;9.57;;;1.88;;
25155;SDS011;21913;52.456;13.634;2023-03-14T16:57:12;6.72;;;2.00;;
25155;SDS011;21913;52.456;13.634;2023-03-14T17:02:14;5.47;;;1.60;;
25155;SDS011;21913;52.456;13.634;2023-03-14T17:07:15;6.70;;;1.60;;
25155;SDS011;21913;52.456;13.634;2023-03-14T17:12:17;6.72;;;1.60;;
25155;SDS011;21913;52.456;13.634;2023-03-14T17:17:18;8.07;;;1.98;;
25155;SDS011;21913;52.456;13.634;2023-03-14T17:22:20;5.18;;;1.60;;
25155;SDS011;21913;52.456;13.634;2023-03-14T17:27:25;4.97;;;1.55;;
25155;SDS011;21913;52.456;13.634;2023-03-14T17:32:27;4.85;;;1.42;;
25155;SDS011;21913;52.456;13.634;2023-03-14T17:37:29;6.78;;;1.80;;
25155;SDS011;21913;52.456;13.634;2023-03-14T17:42:30;4.95;;;1.55;;
25155;SDS011;21913;52.456;13.634;2023-03-14T17:47:32;6.35;;;1.58;;
25155;SDS011;21913;52.456;13.634;2023-03-14T17:52:34;5.13;;;1.55;;
25155;SDS011;21913;52.456;13.634;2023-03-14T17:57:36;5.07;;;1.40;;
25155;SDS011;21913;52.456;13.634;2023-03-14T18:02:38;3.90;;;1.13;;
25155;SDS011;21913;52.456;13.634;2023-03-14T18:07:39;4.68;;;1.45;;
25155;SDS011;21913;52.456;13.634;2023-03-14T18:12:41;5.63;;;1.40;;
25155;SDS011;21913;52.456;13.634;2023-03-14T18:17:43;5.22;;;1.35;;
25155;SDS011;21913;52.456;13.634;2023-03-14T18:22:44;13.65;;;2.72;;
25155;SDS011;21913;52.456;13.634;2023-03-14T18:27:46;8.40;;;2.20;;
25155;SDS011;21913;52.456;13.634;2023-03-14T18:32:47;6.93;;;1.83;;
25155;SDS011;21913;52.456;13.634;2023-03-14T18:37:49;6.13;;;2.10;;
25155;SDS011;21913;52.456;13.634;2023-03-14T18:42:50;10.77;;;2.30;;
25155;SDS011;21913;52.456;13.634;2023-03-14T18:47:52;9.73;;;2.70;;
25155;SDS011;21913;52.456;13.634;2023-03-14T18:52:53;6.72;;;2.25;;
25155;SDS011;21913;52.456;13.634;2023-03-14T18:57:55;7.53;;;2.03;;
25155;SDS011;21913;52.456;13.634;2023-03-14T19:02:56;9.50;;;2.33;;
25155;SDS011;21913;52.456;13.634;2023-03-14T19:07:58;5.55;;;2.00;;
25155;SDS011;21913;52.456;13.634;2023-03-14T19:12:59;8.43;;;2.00;;
25155;SDS011;21913;52.456;13.634;2023-03-14T19:18:04;8.32;;;2.22;;
25155;SDS011;21913;52.456;13.634;2023-03-14T19:23:06;5.45;;;2.00;;
25155;SDS011;21913;52.456;13.634;2023-03-14T19:28:08;5.80;;;1.73;;
25155;SDS011;21913;52.456;13.634;2023-03-14T19:33:13;5.20;;;1.75;;
25155;SDS011;21913;52.456;13.634;2023-03-14T19:38:16;4.55;;;1.80;;
25155;SDS011;21913;52.456;13.634;2023-03-14T19:43:17;6.80;;;1.85;;
25155;SDS011;21913;52.456;13.634;2023-03-14T19:48:18;5.60;;;1.80;;
25155;SDS011;21913;52.456;13.634;2023-03-14T19:53:20;5.35;;;1.92;;
25155;SDS011;21913;52.456;13.634;2023-03-14T19:58:22;6.32;;;1.92;;
25155;SDS011;21913;52.456;13.634;2023-03-14T20:03:23;5.55;;;1.88;;
25155;SDS011;21913;52.456;13.634;2023-03-14T20:08:25;4.78;;;1.65;;
25155;SDS011;21913;52.456;13.634;2023-03-14T20:13:26;5.15;;;1.85;;
25155;SDS011;21913;52.456;13.634;2023-03-14T20:18:28;3.78;;;1.52;;
25155;SDS011;21913;52.456;13.634;2023-03-14T20:23:31;4.97;;;1.75;;
25155;SDS011;21913;52.456;13.634;2023-03-14T20:28:33;5.65;;;1.70;;
25155;SDS011;21913;52.456;13.634;2023-03-14T20:33:34;3.70;;;1.52;;
25155;SDS011;21913;52.456;13.634;2023-03-14T20:38:38;5.05;;;1.63;;
25155;SDS011;21913;52.456;13.634;2023-03-14T20:43:40;4.55;;;1.70;;
25155;SDS011;21913;52.456;13.634;2023-03-14T20:48:41;5.10;;;1.60;;
25155;SDS011;21913;52.456;13.634;2023-03-14T20:53:43;3.72;;;1.30;;
25155;SDS011;21913;52.456;13.634;2023-03-14T20:58:44;4.63;;;1.33;;
25155;SDS011;21913;52.456;13.634;2023-03-14T21:03:46;4.60;;;1.67;;
25155;SDS011;21913;52.456;13.634;2023-03-14T21:08:47;2.90;;;1.50;;
25155;SDS011;21913;52.456;13.634;2023-03-14T21:13:49;3.42;;;1.35;;
25155;SDS011;21913;52.456;13.634;2023-03-14T21:18:50;3.70;;;1.70;;
25155;SDS011;21913;52.456;13.634;2023-03-14T21:23:52;5.70;;;1.60;;
25155;SDS011;21913;52.456;13.634;2023-03-14T21:34:03;4.43;;;1.45;;
25155;SDS011;21913;52.456;13.634;2023-03-14T21:39:05;4.35;;;1.30;;
25155;SDS011;21913;52.456;13.634;2023-03-14T21:44:06;3.15;;;1.52;;
25155;SDS011;21913;52.456;13.634;2023-03-14T21:49:08;8.73;;;1.45;;
25155;SDS011;21913;52.456;13.634;2023-03-14T21:54:09;4.22;;;1.50;;
25155;SDS011;21913;52.456;13.634;2023-03-14T21:59:11;13.05;;;1.70;;
25155;SDS011;21913;52.456;13.634;2023-03-14T22:04:13;5.40;;;1.42;;
25155;SDS011;21913;52.456;13.634;2023-03-14T22:09:14;6.18;;;1.55;;
25155;SDS011;21913;52.456;13.634;2023-03-14T22:14:16;5.07;;;1.55;;
25155;SDS011;21913;52.456;13.634;2023-03-14T22:19:17;3.67;;;1.50;;
25155;SDS011;21913;52.456;13.634;2023-03-14T22:24:19;4.95;;;1.23;;
25155;SDS011;21913;52.456;13.634;2023-03-14T22:29:20;3.90;;;1.50;;
25155;SDS011;21913;52.456;13.634;2023-03-14T22:34:23;5.32;;;1.38;;
25155;SDS011;21913;52.456;13.634;2023-03-14T22:39:24;3.88;;;1.25;;
25155;SDS011;21913;52.456;13.634;2023-03-14T22:44:26;4.28;;;1.30;;
25155;SDS011;21913;52.456;13.634;2023-03-14T22:49:31;5.03;;;1.45;;
25155;SDS011;21913;52.456;13.634;2023-03-14T22:54:32;3.90;;;1.40;;
25155;SDS011;21913;52.456;13.634;2023-03-14T22:59:34;3.22;;;1.38;;
25155;SDS011;21913;52.456;13.634;2023-03-14T23:04:35;4.60;;;1.25;;
25155;SDS011;21913;52.456;13.634;2023-03-14T23:09:37;3.00;;;1.20;;
25155;SDS011;21913;52.456;13.634;2023-03-14T23:14:39;3.70;;;1.30;;
25155;SDS011;21913;52.456;13.634;2023-03-14T23:19:41;5.90;;;1.40;;
25155;SDS011;21913;52.456;13.634;2023-03-14T23:24:42;4.03;;;1.42;;
25155;SDS011;21913;52.456;13.634;2023-03-14T23:29:44;4.63;;;1.33;;
25155;SDS011;21913;52.456;13.634;2023-03-14T23:34:46;2.78;;;1.13;;
25155;SDS011;21913;52.456;13.634;2023-03-14T23:39:48;5.65;;;1.10;;
25155;SDS011;21913;52.456;13.634;2023-03-14T23:44:49;4.25;;;1.30;;
25155;SDS011;21913;52.456;13.634;2023-03-14T23:49:53;3.80;;;1.17;;
25155;SDS011;21913;52.456;13.634;2023-03-14T23:54:54;5.35;;;1.48;;
25155;SDS011;21913;52.456;13.634;2023-03-14T23:59:56;4.40;;;1.55;;
